Time;durP1;ratioP1;P1;durP2;ratioP2;P2;SDS_P1;SDS_P2;PMS_P1;PMS_P2;Temp;Humidity;BMP_temperature;BMP_pressure;BME280_temperature;BME280_humidity;BME280_pressure;Samples;Min_cycle;Max_cycle;Signal;HPM_P1;HPM_P2
2022/01/25 00:24:45;;;;;;;9.57;8.53;;;2.40;95.60;;;;;;5085513;28;20212;-87
2022/01/25 00:32:06;;;;;;;9.17;8.27;;;2.30;96.10;;;;;;5102094;28;20183;-87
2022/01/25 00:34:32;;;;;;;9.60;8.60;;;2.30;95.50;;;;;;5081892;28;20207;-87
2022/01/25 00:36:58;;;;;;;11.30;9.73;;;2.40;95.60;;;;;;5084913;28;20585;-87
2022/01/25 00:39:24;;;;;;;13.37;9.13;;;2.30;95.10;;;;;;5101943;28;20191;-87
2022/01/25 00:41:50;;;;;;;13.87;9.07;;;2.30;95.50;;;;;;5099808;28;20194;-86
2022/01/25 00:44:16;;;;;;;9.90;8.33;;;2.20;95.50;;;;;;5090163;28;20175;-87
2022/01/25 00:46:42;;;;;;;9.40;8.33;;;2.20;95.50;;;;;;5106034;28;20237;-87
2022/01/25 00:49:09;;;;;;;11.47;8.83;;;2.20;95.30;;;;;;5106167;28;20179;-86
2022/01/25 00:52:04;;;;;;;13.23;9.50;;;2.10;95.20;;;;;;5107699;28;20183;-86
2022/01/25 00:54:33;;;;;;;11.83;10.03;;;2.10;95.30;;;;;;5099082;28;20244;-86
2022/01/25 00:57:00;;;;;;;11.40;9.07;;;2.00;94.30;;;;;;5100174;28;20202;-87
2022/01/25 00:59:31;;;;;;;10.33;9.17;;;2.00;95.30;;;;;;5092155;28;20183;-87
2022/01/25 01:02:00;;;;;;;13.13;9.50;;;2.00;95.00;;;;;;5095125;28;20274;-87
2022/01/25 01:04:26;;;;;;;10.10;8.57;;;2.00;95.20;;;;;;5094195;28;20214;-87
2022/01/25 01:06:52;;;;;;;11.57;9.07;;;2.00;95.50;;;;;;5105554;28;20235;-87
2022/01/25 01:09:21;;;;;;;10.03;9.03;;;2.00;96.60;;;;;;5104803;28;20194;-87
2022/01/25 01:11:56;;;;;;;14.10;9.77;;;2.00;95.50;;;;;;5101029;28;20256;-87
2022/01/25 01:14:48;;;;;;;11.43;8.97;;;1.90;95.80;;;;;;5090532;28;20179;-87
2022/01/25 01:17:39;;;;;;;12.37;9.47;;;1.90;96.80;;;;;;5100434;28;20254;-87
2022/01/25 01:34:41;;;;;;;12.00;9.63;;;1.90;95.90;;;;;;5092476;28;20198;-87
2022/01/25 01:42:17;;;;;;;10.93;9.40;;;1.80;95.30;;;;;;5096478;28;20210;-87
2022/01/25 01:45:11;;;;;;;10.23;9.13;;;1.80;95.10;;;;;;5095666;28;20199;-87
2022/01/25 01:47:47;;;;;;;11.03;8.77;;;1.70;95.00;;;;;;5101216;28;20245;-87
2022/01/25 01:50:25;;;;;;;11.07;8.87;;;1.80;95.30;;;;;;5084360;28;20201;-87
2022/01/25 01:52:51;;;;;;;13.30;10.80;;;1.80;95.40;;;;;;5087715;28;20191;-87
2022/01/25 01:55:18;;;;;;;12.33;10.47;;;1.70;94.90;;;;;;5108385;28;20242;-87
2022/01/25 01:57:46;;;;;;;11.97;10.00;;;1.70;95.60;;;;;;5108949;28;20217;-87
2022/01/25 02:00:12;;;;;;;11.83;10.13;;;1.60;95.70;;;;;;5107310;28;20176;-87
2022/01/25 02:02:37;;;;;;;12.17;9.30;;;1.60;95.30;;;;;;5098149;28;20205;-87
2022/01/25 02:05:03;;;;;;;11.40;9.93;;;1.60;94.80;;;;;;5082675;28;20210;-86
2022/01/25 02:07:29;;;;;;;11.27;10.07;;;1.60;94.80;;;;;;5061920;28;20326;-87
2022/01/25 02:09:55;;;;;;;13.60;10.03;;;1.60;95.00;;;;;;5074562;28;20238;-87
2022/01/25 02:12:21;;;;;;;10.67;9.53;;;1.60;94.80;;;;;;5097085;28;20227;-87
2022/01/25 02:14:47;;;;;;;11.30;10.07;;;1.70;95.20;;;;;;5103231;28;20199;-87
2022/01/25 02:23:20;;;;;;;10.47;9.40;;;1.60;95.80;;;;;;5076380;28;20622;-87
2022/01/25 02:25:47;;;;;;;10.80;9.70;;;1.60;94.80;;;;;;5079976;28;20287;-87
2022/01/25 02:28:14;;;;;;;11.43;9.50;;;1.60;95.30;;;;;;5076978;28;20195;-86
2022/01/25 02:30:40;;;;;;;11.63;9.50;;;1.60;94.70;;;;;;5072715;28;20202;-87
2022/01/25 02:33:06;;;;;;;11.37;9.10;;;1.60;94.40;;;;;;5070519;28;20201;-87
2022/01/25 02:35:31;;;;;;;10.53;9.30;;;1.50;94.40;;;;;;5045426;28;20278;-87
2022/01/25 02:37:57;;;;;;;10.13;8.53;;;1.50;95.30;;;;;;5067999;28;20281;-86
2022/01/25 02:40:23;;;;;;;9.97;8.93;;;1.50;96.00;;;;;;5071963;28;20207;-86
2022/01/25 02:42:51;;;;;;;11.57;8.70;;;1.50;96.00;;;;;;5085543;28;20187;-86
2022/01/25 02:45:17;;;;;;;10.40;8.80;;;1.60;95.80;;;;;;5079624;28;20211;-86
2022/01/25 02:50:28;;;;;;;10.33;8.40;;;1.40;95.80;;;;;;5082664;28;20226;-87
2022/01/25 02:52:58;;;;;;;11.03;8.77;;;1.40;95.60;;;;;;5080951;28;20206;-86
2022/01/25 02:55:23;;;;;;;10.73;8.50;;;1.40;96.00;;;;;;5079019;28;20230;-86
2022/01/25 02:57:50;;;;;;;10.13;8.47;;;1.40;95.90;;;;;;5084015;28;20211;-88
2022/01/25 03:00:17;;;;;;;11.10;9.33;;;1.40;95.90;;;;;;5069216;28;20192;-86
2022/01/25 03:02:42;;;;;;;11.93;10.00;;;1.40;96.30;;;;;;5077020;28;20180;-86
2022/01/25 03:05:09;;;;;;;13.93;10.70;;;1.30;96.80;;;;;;5083095;28;20620;-87
2022/01/25 03:07:38;;;;;;;14.87;12.03;;;1.40;97.40;;;;;;5084339;28;20226;-87
2022/01/25 03:10:05;;;;;;;15.60;11.80;;;1.30;97.50;;;;;;5081922;28;20184;-87
2022/01/25 03:12:48;;;;;;;12.70;10.27;;;1.30;98.50;;;;;;5083462;28;20212;-87
2022/01/25 03:17:55;;;;;;;16.97;11.33;;;1.40;97.50;;;;;;5095570;28;20743;-87
2022/01/25 03:20:34;;;;;;;16.23;10.43;;;1.30;97.70;;;;;;5101087;28;20281;-87
2022/01/25 03:23:05;;;;;;;14.03;10.97;;;1.20;97.90;;;;;;5100486;28;20187;-86
2022/01/25 03:25:31;;;;;;;12.27;10.23;;;1.10;98.00;;;;;;5096111;28;20238;-86
2022/01/25 03:27:57;;;;;;;11.20;10.00;;;1.00;98.10;;;;;;5094497;28;20199;-87
2022/01/25 03:30:25;;;;;;;12.37;10.53;;;0.90;98.70;;;;;;5101026;28;20202;-87
2022/01/25 03:32:51;;;;;;;14.10;10.53;;;0.80;99.90;;;;;;5098600;28;20200;-87
2022/01/25 03:35:17;;;;;;;16.93;12.97;;;0.90;99.90;;;;;;5101905;28;20207;-87
2022/01/25 03:37:42;;;;;;;17.47;11.67;;;1.00;99.90;;;;;;5098745;28;20563;-87
2022/01/25 03:40:09;;;;;;;14.20;10.63;;;1.00;99.70;;;;;;5094659;28;20601;-87
2022/01/25 03:42:37;;;;;;;17.13;11.70;;;1.10;99.40;;;;;;5094611;28;20701;-87
2022/01/25 03:45:06;;;;;;;15.30;11.10;;;1.00;99.20;;;;;;5104012;28;20174;-87
2022/01/25 03:47:45;;;;;;;15.43;11.23;;;1.10;98.80;;;;;;5096620;28;20203;-87
2022/01/25 03:50:10;;;;;;;15.50;11.53;;;1.00;98.80;;;;;;5097602;28;20575;-87
2022/01/25 03:52:37;;;;;;;18.10;12.07;;;1.10;98.90;;;;;;5104726;28;20280;-86
2022/01/25 03:55:04;;;;;;;15.83;10.70;;;1.10;98.70;;;;;;5094768;28;20191;-87
2022/01/25 03:57:30;;;;;;;20.03;12.40;;;1.00;98.20;;;;;;5095884;28;20215;-87
2022/01/25 03:59:59;;;;;;;19.00;12.43;;;1.00;98.30;;;;;;5105691;28;20189;-86
2022/01/25 04:02:27;;;;;;;18.47;12.63;;;1.00;98.20;;;;;;5117581;28;20211;-87
2022/01/25 04:04:52;;;;;;;19.47;14.03;;;1.00;98.50;;;;;;5103055;28;20206;-87
2022/01/25 04:07:27;;;;;;;17.53;12.67;;;0.90;99.00;;;;;;5101898;28;20179;-87
2022/01/25 04:09:53;;;;;;;15.70;11.90;;;1.00;99.10;;;;;;5118766;28;20238;-87
2022/01/25 04:12:19;;;;;;;16.77;12.47;;;1.00;99.00;;;;;;5096655;28;20179;-88
2022/01/25 04:14:45;;;;;;;19.20;13.57;;;1.10;99.20;;;;;;5109596;28;20175;-87
2022/01/25 04:17:14;;;;;;;16.70;12.33;;;1.00;99.30;;;;;;5077578;28;21009;-87
2022/01/25 04:19:47;;;;;;;18.20;11.63;;;1.00;98.20;;;;;;5113157;28;20183;-86
2022/01/25 04:27:25;;;;;;;15.50;11.60;;;0.90;97.90;;;;;;5108013;28;20197;-88
2022/01/25 04:29:52;;;;;;;20.83;13.63;;;0.90;98.60;;;;;;5102791;28;20190;-88
2022/01/25 04:32:19;;;;;;;14.70;11.17;;;1.00;99.00;;;;;;5101661;28;20622;-87
2022/01/25 04:35:10;;;;;;;15.40;12.00;;;0.90;99.90;;;;;;5091755;28;20191;-87
2022/01/25 04:54:03;;;;;;;14.60;11.37;;;0.80;99.90;;;;;;5105405;28;20190;-87
2022/01/25 04:56:37;;;;;;;15.67;12.70;;;0.80;99.90;;;;;;5089823;28;20249;-87
2022/01/25 05:01:50;;;;;;;14.90;12.63;;;0.70;99.90;;;;;;5093920;28;20217;-88
2022/01/25 05:04:23;;;;;;;38.13;21.97;;;0.70;99.90;;;;;;5105728;28;20183;-87
2022/01/25 05:06:52;;;;;;;28.67;14.63;;;0.70;99.90;;;;;;5087687;28;20294;-86
2022/01/25 05:09:20;;;;;;;20.37;13.33;;;0.60;99.90;;;;;;5074008;28;20192;-86
2022/01/25 05:11:48;;;;;;;22.13;13.83;;;0.40;99.90;;;;;;5100742;28;20228;-87
2022/01/25 05:14:20;;;;;;;19.80;15.53;;;0.20;99.90;;;;;;5074151;28;20206;-86
2022/01/25 05:16:57;;;;;;;25.57;12.83;;;0.20;99.90;;;;;;5107713;28;20590;-87
2022/01/25 05:24:42;;;;;;;27.30;19.80;;;0.40;99.90;;;;;;5085904;28;20276;-86
2022/01/25 05:27:09;;;;;;;13.93;11.17;;;0.30;99.90;;;;;;5084303;28;20210;-86
2022/01/25 05:29:35;;;;;;;12.90;11.03;;;0.30;99.90;;;;;;5097656;28;20195;-87
2022/01/25 05:32:01;;;;;;;18.90;13.13;;;0.30;99.90;;;;;;5082497;28;20194;-86
2022/01/25 05:34:27;;;;;;;16.83;13.20;;;0.40;99.90;;;;;;5096875;28;20191;-87
2022/01/25 05:36:53;;;;;;;12.37;10.03;;;0.30;99.90;;;;;;5102926;28;20313;-86
2022/01/25 05:39:26;;;;;;;10.67;9.43;;;0.20;99.90;;;;;;5101621;28;20190;-86
2022/01/25 05:42:02;;;;;;;10.77;9.17;;;0.30;99.90;;;;;;5102216;28;20183;-86
2022/01/25 05:44:53;;;;;;;10.17;8.70;;;0.30;99.90;;;;;;5092434;28;20186;-86
2022/01/25 05:47:24;;;;;;;20.60;10.47;;;0.20;99.90;;;;;;5071411;28;20249;-87
2022/01/25 05:49:50;;;;;;;67.63;12.20;;;0.10;99.90;;;;;;5076821;28;20195;-87
2022/01/25 05:52:16;;;;;;;96.60;15.63;;;-0.20;99.90;;;;;;5101415;28;20221;-86
2022/01/25 05:54:42;;;;;;;99.40;13.73;;;-0.50;99.90;;;;;;5093413;28;20207;-86
2022/01/25 05:57:08;;;;;;;15.83;9.53;;;-0.50;99.90;;;;;;5086570;28;20238;-86
2022/01/25 05:59:36;;;;;;;20.27;9.87;;;-0.40;99.90;;;;;;5075751;28;20213;-87
2022/01/25 06:02:02;;;;;;;21.07;10.43;;;-0.30;99.90;;;;;;5095193;28;20180;-86
2022/01/25 06:04:28;;;;;;;26.73;10.50;;;-0.30;99.90;;;;;;5083902;28;20247;-87
2022/01/25 06:06:53;;;;;;;88.27;14.27;;;-0.30;99.90;;;;;;5101080;28;20222;-86
2022/01/25 06:09:19;;;;;;;17.70;15.80;;;-0.40;99.90;;;;;;5100297;28;20208;-86
2022/01/25 06:11:45;;;;;;;134.97;15.47;;;-0.30;99.90;;;;;;5091531;28;20183;-87
2022/01/25 06:14:11;;;;;;;17.90;9.90;;;-0.30;99.90;;;;;;5095778;28;20198;-86
2022/01/25 06:16:37;;;;;;;15.67;9.70;;;-0.20;99.90;;;;;;5081722;28;20218;-87
2022/01/25 06:19:03;;;;;;;33.63;9.77;;;-0.20;99.90;;;;;;5100246;28;20182;-86
2022/01/25 06:21:28;;;;;;;25.80;9.93;;;-0.20;99.90;;;;;;5081266;28;20221;-87
2022/01/25 06:23:55;;;;;;;36.83;10.50;;;-0.20;99.90;;;;;;5079704;28;20290;-86
2022/01/25 06:26:21;;;;;;;11.83;10.50;;;-0.20;99.90;;;;;;5101121;28;20290;-87
2022/01/25 06:28:47;;;;;;;59.53;11.53;;;-0.10;99.90;;;;;;5103781;28;20163;-88
2022/01/25 06:31:15;;;;;;;10.47;9.03;;;-0.10;99.90;;;;;;5105078;28;20199;-86
2022/01/25 06:33:42;;;;;;;13.93;8.87;;;0.00;99.90;;;;;;5101672;28;20193;-87
2022/01/25 06:36:08;;;;;;;10.83;9.70;;;0.10;99.90;;;;;;5106174;28;20340;-86
2022/01/25 06:38:34;;;;;;;13.10;9.83;;;0.20;99.90;;;;;;5081753;28;20195;-86
2022/01/25 06:41:01;;;;;;;9.70;8.70;;;0.30;99.90;;;;;;5096514;28;20194;-86
2022/01/25 06:43:26;;;;;;;34.90;10.97;;;0.40;99.90;;;;;;5068977;28;20186;-85
2022/01/25 06:45:59;;;;;;;14.60;9.80;;;0.40;99.90;;;;;;5089165;28;20445;-85
2022/01/25 06:48:25;;;;;;;10.17;9.17;;;0.30;99.90;;;;;;5079321;28;20194;-86
2022/01/25 06:50:52;;;;;;;9.90;8.83;;;0.40;99.90;;;;;;5093895;28;20267;-84
2022/01/25 06:53:17;;;;;;;10.03;9.00;;;0.30;99.90;;;;;;5109442;28;20412;-85
2022/01/25 06:55:43;;;;;;;11.00;8.60;;;0.20;99.90;;;;;;5103099;28;20238;-85
2022/01/25 06:58:09;;;;;;;9.10;8.20;;;0.30;99.90;;;;;;5085384;22;20219;-89
2022/01/25 07:00:35;;;;;;;9.13;8.17;;;0.30;99.90;;;;;;5058498;28;20220;-89
2022/01/25 07:03:01;;;;;;;10.43;9.33;;;0.40;99.90;;;;;;5061242;28;20237;-89
2022/01/25 07:05:27;;;;;;;20.00;8.83;;;0.50;99.90;;;;;;5046480;28;20272;-89
2022/01/25 07:07:53;;;;;;;13.03;8.57;;;0.40;99.90;;;;;;5060384;28;20224;-89
2022/01/25 07:10:19;;;;;;;40.40;10.63;;;0.30;99.90;;;;;;5057964;28;20187;-90
2022/01/25 07:12:45;;;;;;;10.87;9.40;;;0.00;99.90;;;;;;5056188;28;20184;-89
2022/01/25 07:15:12;;;;;;;11.13;9.10;;;-0.10;99.90;;;;;;5056046;28;20218;-89
2022/01/25 07:17:39;;;;;;;48.80;11.17;;;-0.20;99.90;;;;;;5071332;28;20310;-89
2022/01/25 07:20:06;;;;;;;22.93;10.30;;;-0.30;99.90;;;;;;5075900;28;20187;-89
2022/01/25 07:22:33;;;;;;;27.20;10.13;;;-0.60;99.90;;;;;;5060557;28;20200;-89
2022/01/25 07:24:59;;;;;;;9.47;8.57;;;-0.70;99.90;;;;;;5049525;28;20773;-89
2022/01/25 07:27:24;;;;;;;20.53;10.10;;;-0.70;99.90;;;;;;5056308;28;20220;-89
2022/01/25 07:29:50;;;;;;;40.83;11.67;;;-0.50;99.90;;;;;;5059877;28;20207;-88
2022/01/25 07:32:16;;;;;;;17.07;10.03;;;-0.50;99.90;;;;;;5046241;28;20189;-89
2022/01/25 07:34:42;;;;;;;55.03;12.57;;;-0.60;99.90;;;;;;5037471;28;20234;-89
2022/01/25 07:37:08;;;;;;;20.87;10.43;;;-0.70;99.90;;;;;;5054243;28;20228;-89
2022/01/25 07:39:33;;;;;;;30.40;11.70;;;-0.60;99.90;;;;;;5054461;28;20312;-89
2022/01/25 07:41:59;;;;;;;13.17;10.80;;;-0.70;99.90;;;;;;5052421;28;20246;-88
2022/01/25 07:44:30;;;;;;;16.50;10.97;;;-0.60;99.90;;;;;;5065238;28;20250;-88
2022/01/25 07:47:00;;;;;;;12.27;10.23;;;-0.40;99.90;;;;;;5047964;28;20223;-88
2022/01/25 07:49:27;;;;;;;11.83;10.63;;;-0.30;99.90;;;;;;5066515;28;20195;-89
2022/01/25 07:51:54;;;;;;;11.47;9.77;;;-0.10;99.90;;;;;;5047568;28;20283;-88
2022/01/25 07:54:20;;;;;;;12.00;10.23;;;0.00;99.90;;;;;;5060903;28;20200;-88
2022/01/25 07:56:45;;;;;;;13.23;11.00;;;0.10;99.90;;;;;;5054080;28;20214;-88
2022/01/25 07:59:11;;;;;;;37.63;12.83;;;0.10;99.90;;;;;;5095294;28;20184;-88
2022/01/25 08:01:37;;;;;;;21.90;11.10;;;-0.20;99.90;;;;;;5083536;28;20180;-89
2022/01/25 08:04:03;;;;;;;16.63;13.83;;;-0.40;99.90;;;;;;5104518;28;20182;-89
2022/01/25 08:06:29;;;;;;;30.53;17.07;;;-0.50;99.90;;;;;;5083739;28;20752;-90
2022/01/25 08:08:55;;;;;;;30.73;17.43;;;-0.60;99.90;;;;;;5063452;28;20192;-88
2022/01/25 08:11:20;;;;;;;28.20;17.10;;;-0.50;99.90;;;;;;5058592;28;20282;-88
2022/01/25 08:13:50;;;;;;;28.77;18.97;;;-0.70;99.90;;;;;;5053251;28;20187;-88
2022/01/25 08:16:16;;;;;;;28.07;18.37;;;-0.70;99.90;;;;;;5089559;28;20207;-88
2022/01/25 08:18:43;;;;;;;22.07;15.17;;;-0.80;99.90;;;;;;5087343;28;20217;-89
2022/01/25 08:21:09;;;;;;;19.27;14.83;;;-0.70;99.90;;;;;;5086613;28;20186;-88
2022/01/25 08:23:35;;;;;;;40.53;17.23;;;-0.50;99.90;;;;;;5087176;28;20562;-90
2022/01/25 08:26:02;;;;;;;43.13;17.67;;;-0.50;99.90;;;;;;5067738;28;20195;-89
2022/01/25 08:28:28;;;;;;;37.57;18.23;;;-0.70;99.90;;;;;;5073008;28;20264;-89
2022/01/25 08:30:53;;;;;;;22.77;14.60;;;-0.70;99.90;;;;;;5079485;28;20183;-89
2022/01/25 08:33:19;;;;;;;34.67;17.80;;;-0.50;99.90;;;;;;5095096;28;20199;-89
2022/01/25 08:35:45;;;;;;;42.40;14.73;;;-0.40;99.90;;;;;;5074849;28;20270;-89
2022/01/25 08:38:11;;;;;;;27.03;16.07;;;-0.60;99.90;;;;;;5074454;28;20219;-89
2022/01/25 08:40:37;;;;;;;82.67;19.67;;;-0.70;99.90;;;;;;5084431;28;20195;-89
2022/01/25 08:43:03;;;;;;;45.40;16.20;;;-0.80;99.90;;;;;;5079552;28;20183;-88
2022/01/25 08:45:29;;;;;;;49.93;16.77;;;-1.00;99.90;;;;;;5082366;28;20187;-88
2022/01/25 08:47:54;;;;;;;23.47;14.27;;;-0.90;99.90;;;;;;5088196;28;20211;-88
2022/01/25 08:50:20;;;;;;;23.53;15.20;;;-0.70;99.90;;;;;;5085188;28;20199;-88
2022/01/25 08:52:46;;;;;;;39.47;16.40;;;-0.50;99.90;;;;;;5081612;28;20258;-88
2022/01/25 08:55:14;;;;;;;46.60;15.60;;;-0.50;99.90;;;;;;5084439;28;20722;-89
2022/01/25 08:57:39;;;;;;;49.03;15.03;;;-0.50;99.90;;;;;;5079965;28;20231;-89
2022/01/25 09:00:08;;;;;;;21.07;14.60;;;-0.40;99.90;;;;;;5070305;28;20249;-89
2022/01/25 09:02:34;;;;;;;47.00;15.10;;;-0.30;99.90;;;;;;5080751;28;20203;-89
2022/01/25 09:05:00;;;;;;;15.47;12.33;;;-0.20;99.90;;;;;;5060031;28;20611;-89
2022/01/25 09:07:25;;;;;;;19.00;16.43;;;-0.20;99.90;;;;;;5069239;28;20211;-89
2022/01/25 09:09:51;;;;;;;17.67;14.23;;;0.00;99.90;;;;;;5082226;28;20183;-89
2022/01/25 09:12:17;;;;;;;16.77;13.43;;;0.20;99.90;;;;;;5084431;28;20203;-89
2022/01/25 09:14:43;;;;;;;17.17;13.43;;;0.40;99.90;;;;;;5098979;28;20245;-90
2022/01/25 09:17:10;;;;;;;19.23;14.23;;;0.40;99.90;;;;;;5087375;28;20603;-89
2022/01/25 09:19:38;;;;;;;15.63;13.23;;;0.60;99.90;;;;;;5082735;28;20214;-89
2022/01/25 09:22:08;;;;;;;29.17;14.97;;;0.60;99.90;;;;;;5070365;28;20202;-90
2022/01/25 09:24:34;;;;;;;22.80;14.57;;;0.50;99.90;;;;;;5062305;28;20186;-88
2022/01/25 09:27:02;;;;;;;27.00;15.77;;;0.20;99.90;;;;;;5100046;28;20256;-90
2022/01/25 09:29:28;;;;;;;24.50;16.30;;;0.20;99.90;;;;;;5088873;28;20255;-89
2022/01/25 09:31:54;;;;;;;59.70;18.00;;;0.10;99.90;;;;;;5098208;28;20187;-89
2022/01/25 09:34:23;;;;;;;35.83;16.33;;;0.00;99.90;;;;;;5100230;28;20221;-89
2022/01/25 09:36:50;;;;;;;30.27;16.30;;;-0.20;99.90;;;;;;5075738;28;20249;-90
2022/01/25 09:39:16;;;;;;;62.07;18.70;;;0.10;99.90;;;;;;5085596;28;20187;-89
2022/01/25 09:41:42;;;;;;;50.27;18.47;;;0.00;99.90;;;;;;5088382;28;20241;-89
2022/01/25 09:44:08;;;;;;;100.33;22.20;;;0.00;99.90;;;;;;5084726;28;20191;-89
2022/01/25 09:46:33;;;;;;;97.53;21.23;;;0.00;99.90;;;;;;5051258;28;20207;-89
2022/01/25 09:48:59;;;;;;;128.70;24.37;;;0.00;99.90;;;;;;5080543;28;20254;-89
2022/01/25 09:51:26;;;;;;;80.57;22.43;;;-0.30;99.90;;;;;;5063277;28;20203;-89
2022/01/25 09:53:52;;;;;;;166.77;27.33;;;-0.30;99.90;;;;;;5086981;28;20175;-89
2022/01/25 09:56:18;;;;;;;131.93;25.43;;;-0.40;99.90;;;;;;5086816;28;20230;-89
2022/01/25 09:58:44;;;;;;;92.27;24.10;;;-0.40;99.90;;;;;;5068264;28;20200;-89
2022/01/25 10:01:12;;;;;;;72.40;23.30;;;-0.30;99.90;;;;;;5082704;28;20217;-90
2022/01/25 10:03:38;;;;;;;121.37;24.13;;;-0.20;99.90;;;;;;5076814;28;20183;-89
2022/01/25 10:06:12;;;;;;;59.63;21.47;;;-0.20;99.90;;;;;;5097366;28;20191;-89
2022/01/25 10:08:38;;;;;;;154.70;27.70;;;-0.10;99.90;;;;;;5094218;28;20270;-89
2022/01/25 10:11:07;;;;;;;29.77;19.70;;;0.00;99.90;;;;;;5079379;28;20221;-89
2022/01/25 10:13:36;;;;;;;77.87;23.13;;;-0.20;99.90;;;;;;5094543;28;20660;-89
2022/01/25 10:16:04;;;;;;;45.40;21.40;;;0.00;99.90;;;;;;5080941;28;20222;-88
2022/01/25 10:18:41;;;;;;;42.10;21.63;;;-0.20;99.90;;;;;;5095441;28;20210;-88
2022/01/25 10:21:12;;;;;;;55.73;23.27;;;-0.30;99.90;;;;;;5096004;28;20238;-89
2022/01/25 10:23:40;;;;;;;53.80;23.80;;;-0.10;99.90;;;;;;5096103;28;20203;-88
2022/01/25 10:26:07;;;;;;;62.70;24.43;;;0.00;99.90;;;;;;5090710;28;20199;-88
2022/01/25 10:28:32;;;;;;;61.27;27.10;;;-0.20;99.90;;;;;;5090801;28;20623;-88
2022/01/25 10:31:01;;;;;;;40.97;25.27;;;-0.30;99.90;;;;;;5087803;28;20187;-88
2022/01/25 10:33:33;;;;;;;29.90;22.97;;;-0.40;99.90;;;;;;5088583;28;20190;-88
2022/01/25 10:36:22;;;;;;;47.33;23.93;;;-0.30;99.90;;;;;;5077034;28;20275;-88
2022/01/25 10:38:49;;;;;;;37.10;24.40;;;0.10;99.90;;;;;;5075491;28;20650;-89
2022/01/25 10:41:18;;;;;;;31.43;22.70;;;0.20;99.90;;;;;;5096054;28;20199;-90
2022/01/25 10:43:46;;;;;;;30.83;22.67;;;0.40;99.90;;;;;;5090710;28;20179;-88
2022/01/25 10:46:24;;;;;;;32.50;23.77;;;0.40;99.90;;;;;;5096818;28;20220;-89
2022/01/25 10:49:05;;;;;;;33.97;25.27;;;0.20;99.90;;;;;;5072696;28;20191;-88
2022/01/25 10:51:34;;;;;;;28.70;22.80;;;0.00;99.90;;;;;;5094071;28;20191;-89
2022/01/25 10:54:12;;;;;;;32.87;24.07;;;0.10;99.90;;;;;;5099339;28;20281;-88
2022/01/25 10:56:40;;;;;;;36.27;25.10;;;0.20;99.90;;;;;;5087462;28;20226;-88
2022/01/25 10:59:08;;;;;;;31.00;23.20;;;0.30;99.90;;;;;;5103834;28;20182;-88
2022/01/25 11:01:44;;;;;;;35.43;23.63;;;0.30;99.90;;;;;;5097631;28;20195;-88
2022/01/25 11:04:14;;;;;;;32.57;24.10;;;0.30;99.90;;;;;;5089853;28;20186;-88
2022/01/25 11:06:41;;;;;;;42.13;26.50;;;0.10;99.90;;;;;;5063187;28;20215;-88
2022/01/25 11:09:10;;;;;;;38.00;26.00;;;0.00;99.90;;;;;;5086581;28;20202;-88
2022/01/25 11:11:46;;;;;;;42.63;28.87;;;0.10;99.90;;;;;;5100787;28;20242;-87
2022/01/25 11:16:59;;;;;;;39.00;28.13;;;0.30;99.90;;;;;;5094926;28;20229;-87
2022/01/25 11:19:25;;;;;;;41.77;28.23;;;0.50;99.90;;;;;;5095359;28;20279;-87
2022/01/25 11:21:52;;;;;;;44.53;28.77;;;0.50;99.90;;;;;;5079416;28;20202;-87
2022/01/25 11:24:20;;;;;;;42.50;27.80;;;0.40;99.90;;;;;;5077599;28;20213;-87
2022/01/25 11:26:48;;;;;;;42.10;28.73;;;0.50;99.90;;;;;;5104467;28;20623;-87
2022/01/25 11:29:14;;;;;;;50.00;30.27;;;0.50;99.90;;;;;;5098299;28;20183;-87
2022/01/25 11:31:45;;;;;;;49.27;31.83;;;0.30;99.90;;;;;;5097789;28;20202;-87
2022/01/25 11:34:14;;;;;;;54.67;34.30;;;0.40;99.90;;;;;;5081126;28;20206;-87
2022/01/25 11:36:58;;;;;;;58.73;32.57;;;0.40;99.90;;;;;;5067101;28;20229;-88
2022/01/25 11:39:27;;;;;;;60.53;35.23;;;0.50;99.90;;;;;;5103465;28;20198;-87
2022/01/25 11:42:04;;;;;;;56.00;34.43;;;0.20;99.90;;;;;;5094804;28;20191;-87
2022/01/25 11:44:31;;;;;;;65.17;38.47;;;0.10;99.90;;;;;;5096886;28;20199;-88
2022/01/25 11:47:18;;;;;;;67.97;37.90;;;0.00;99.90;;;;;;5096895;28;20266;-87
2022/01/25 11:49:55;;;;;;;71.80;37.27;;;0.10;99.90;;;;;;5099356;28;20209;-88
2022/01/25 11:52:24;;;;;;;49.23;32.03;;;0.20;99.90;;;;;;5065471;28;20729;-88
2022/01/25 11:55:15;;;;;;;51.57;33.23;;;0.30;99.90;;;;;;5096426;28;20237;-88
2022/01/25 11:57:54;;;;;;;53.30;32.57;;;0.50;99.90;;;;;;5067677;28;20708;-87
2022/01/25 12:00:37;;;;;;;47.13;31.03;;;0.60;99.90;;;;;;5093639;28;20195;-87
2022/01/25 12:03:17;;;;;;;46.60;29.50;;;0.60;99.90;;;;;;5079900;28;20195;-87
2022/01/25 12:06:14;;;;;;;48.37;31.13;;;0.70;99.90;;;;;;5097756;28;20190;-87
2022/01/25 12:12:22;;;;;;;44.60;31.17;;;0.70;99.90;;;;;;5094404;28;20217;-87
2022/01/25 12:14:38;;;;;;;45.00;30.10;;;0.90;99.90;;;;;;5089450;28;20214;-87
2022/01/25 12:17:04;;;;;;;45.47;29.03;;;0.90;99.90;;;;;;5096278;28;20226;-87
2022/01/25 12:19:35;;;;;;;45.40;29.90;;;0.80;99.90;;;;;;5098909;28;20191;-88
2022/01/25 12:22:07;;;;;;;44.43;30.13;;;0.70;99.90;;;;;;5084204;28;20183;-87
2022/01/25 12:24:48;;;;;;;45.47;31.33;;;0.60;99.90;;;;;;5096919;28;20191;-89
2022/01/25 12:27:26;;;;;;;44.30;30.47;;;0.60;99.90;;;;;;5099334;28;20289;-88
2022/01/25 12:30:11;;;;;;;45.80;30.50;;;0.70;99.90;;;;;;5090005;28;20183;-87
2022/01/25 12:33:02;;;;;;;47.97;31.63;;;0.70;99.90;;;;;;5097260;28;20532;-88
2022/01/25 12:35:52;;;;;;;42.77;30.07;;;0.60;99.90;;;;;;5089939;28;20206;-87
2022/01/25 12:38:19;;;;;;;45.97;31.63;;;0.60;99.90;;;;;;5076710;28;20701;-88
2022/01/25 12:41:06;;;;;;;44.60;30.40;;;0.60;99.90;;;;;;5093916;28;20171;-87
2022/01/25 12:43:53;;;;;;;46.43;29.83;;;0.70;99.90;;;;;;5092929;28;20194;-87
2022/01/25 12:46:35;;;;;;;41.67;28.63;;;1.00;99.90;;;;;;5079592;28;20210;-87
2022/01/25 12:49:11;;;;;;;45.17;29.80;;;1.00;99.90;;;;;;5093315;28;20248;-87
2022/01/25 12:51:39;;;;;;;49.70;36.10;;;1.20;99.90;;;;;;5094984;28;20269;-87
2022/01/25 12:54:08;;;;;;;51.20;29.40;;;1.40;99.90;;;;;;5094155;28;20206;-87
2022/01/25 12:56:56;;;;;;;44.60;30.73;;;1.40;99.90;;;;;;5094440;28;20303;-87
2022/01/25 12:59:27;;;;;;;42.20;28.90;;;1.10;99.90;;;;;;5092446;28;20190;-87
2022/01/25 13:01:55;;;;;;;47.30;30.80;;;1.10;99.90;;;;;;5091530;28;20320;-87
2022/01/25 13:04:21;;;;;;;51.20;33.93;;;1.10;99.90;;;;;;5069591;28;20308;-87
2022/01/25 13:06:50;;;;;;;49.07;30.70;;;0.80;99.90;;;;;;5087340;28;20250;-87
2022/01/25 13:17:14;;;;;;;47.20;32.47;;;1.50;99.90;;;;;;5088586;28;20241;-88
2022/01/25 13:19:49;;;;;;;42.53;31.40;;;1.30;99.90;;;;;;5077957;28;20190;-88
2022/01/25 13:22:18;;;;;;;44.47;31.33;;;1.40;99.90;;;;;;5093092;28;20247;-87
2022/01/25 13:25:13;;;;;;;44.87;31.73;;;1.30;99.90;;;;;;5087870;28;20224;-87
2022/01/25 13:27:52;;;;;;;47.90;32.07;;;1.20;99.90;;;;;;5092518;28;20579;-87
2022/01/25 13:30:49;;;;;;;46.57;30.63;;;1.10;99.90;;;;;;5086612;28;20197;-87
2022/01/25 13:33:17;;;;;;;51.37;32.40;;;1.20;99.90;;;;;;5088679;28;20186;-87
2022/01/25 13:35:49;;;;;;;45.57;29.07;;;1.50;99.90;;;;;;5089420;28;20194;-87
2022/01/25 13:38:46;;;;;;;39.00;30.33;;;1.80;99.90;;;;;;5088804;28;20212;-87
2022/01/25 13:46:36;;;;;;;40.87;30.83;;;2.40;99.90;;;;;;5085797;28;20256;-87
2022/01/25 13:49:12;;;;;;;43.27;30.77;;;2.50;99.90;;;;;;5071807;28;20199;-87
2022/01/25 13:51:45;;;;;;;46.73;31.20;;;2.50;99.90;;;;;;5088912;28;20289;-87
2022/01/25 13:54:14;;;;;;;44.50;32.17;;;2.60;99.90;;;;;;5085582;28;20249;-87
2022/01/25 13:56:40;;;;;;;41.23;29.87;;;2.50;99.90;;;;;;5088458;28;20217;-87
2022/01/25 13:59:06;;;;;;;42.63;31.60;;;2.50;99.90;;;;;;5087415;28;20179;-86
2022/01/25 14:01:35;;;;;;;41.67;30.43;;;2.40;99.90;;;;;;5088249;28;20192;-87
2022/01/25 14:04:03;;;;;;;43.23;32.77;;;2.40;99.90;;;;;;5088314;28;20175;-87
2022/01/25 14:06:31;;;;;;;40.53;29.13;;;2.40;99.90;;;;;;5087681;28;20229;-87
2022/01/25 14:09:11;;;;;;;39.70;30.13;;;2.30;99.90;;;;;;5088373;28;20186;-87
2022/01/25 14:25:13;;;;;;;40.73;32.40;;;2.50;99.90;;;;;;5097026;28;20231;-86
2022/01/25 14:27:52;;;;;;;36.33;27.77;;;2.50;99.90;;;;;;5105573;28;20302;-86
2022/01/25 14:30:18;;;;;;;36.40;26.00;;;2.60;99.90;;;;;;5103210;28;20183;-87
2022/01/25 14:32:55;;;;;;;38.17;29.13;;;2.40;99.90;;;;;;5090441;28;20179;-87
2022/01/25 14:35:20;;;;;;;36.23;27.47;;;2.00;99.90;;;;;;5103078;28;20281;-86
2022/01/25 14:37:49;;;;;;;38.63;28.80;;;1.90;99.90;;;;;;5101654;28;20217;-87
2022/01/25 14:40:16;;;;;;;37.93;28.40;;;1.80;99.90;;;;;;5103536;28;20171;-87
2022/01/25 14:42:43;;;;;;;37.93;28.60;;;1.90;99.90;;;;;;5109874;28;20221;-87
2022/01/25 14:45:20;;;;;;;36.67;28.00;;;2.10;99.90;;;;;;5106099;28;20556;-87
2022/01/25 14:47:51;;;;;;;36.50;27.53;;;2.30;99.90;;;;;;5093615;28;20716;-87
2022/01/25 14:50:35;;;;;;;37.17;27.47;;;2.40;99.90;;;;;;5104581;28;20270;-87